Portada
METAR-TAF:

METAR-TAF

Aeropuertos :

Aeropuerto Internacional de Nador

Nador, Marruecos

latitud: 34-59-20N, longitud: 003-01-42W, altitud: 175 m

Observación

El informe se hizo hace 34 minutos, a las 03:00 UTC
Viento 3 kt del este
Temperatura 16°C
Humedad 82%
Presión 1013 hPa
Visibilidad 10 km o más
Escasas nubes a una altura de 2000 ft
Cielo nuboso a una altura de 4000 ft

METAR: GMMW 250300Z 10003KT 9999 FEW020 BKN040 16/13 Q1013 NOSIG

Hora: 03:34 (03:34 UTC)

Pronóstico

El informe se hizo hace 4 horas y 34 minutos, a las 23:00 UTC
Pronóstico válido del 25 a las 00 UTC al 26 a las 06 UTC
Viento 2 kt con dirección variable
Visibilidad: 8000 m
Nubes dispersas a una altura de 1600 ft
Cielo nuboso a una altura de 8000 ft
Evolucionando progresivamente
del 25 a las 08 UTC al 25 a las 11 UTC
Viento 8 kt del norte

TAF: GMMW 242300Z 2500/2606 VRB02KT 8000 SCT016 BKN080 BECMG 2508/2511 36008KT

Observaciones y pronósticos meteorológicos de más de 4000 aeropuertos (mensajes METAR y TAF).

Los puntos amarillos y rojos representan las estaciones disponibles.

Ponga el ratón en el punto deseado para ver el nombre de la estación.

Haga clic para ver las observaciones y los pronósticos meteorológicos.

Para cambiar el mapa : haga clic en los botones verdes con una cruz de color negro para hacer un zoom, en el botón verde con un guión para alejar o en las flechas verdes para mapas adyacentes.


METAR-TAF: